Time;durP1;ratioP1;P1;durP2;ratioP2;P2;SDS_P1;SDS_P2;PMS_P1;PMS_P2;Temp;Humidity;BMP_temperature;BMP_pressure;BME280_temperature;BME280_humidity;BME280_pressure;Samples;Min_cycle;Max_cycle;Signal;HPM_P1;HPM_P2
2023/10/21 00:01:05;;;;;;;27.02;13.05;;;14.30;99.90;;;;;;5054324;28;20017;-82
2023/10/21 00:03:31;;;;;;;23.08;12.70;;;14.20;99.90;;;;;;5050839;28;20017;-77
2023/10/21 00:05:57;;;;;;;21.13;11.40;;;14.20;99.90;;;;;;5053203;28;20049;-83
2023/10/21 00:08:23;;;;;;;29.27;12.85;;;14.10;99.90;;;;;;5052589;28;20080;-83
2023/10/21 00:10:48;;;;;;;18.80;10.20;;;14.00;99.90;;;;;;5052920;28;20016;-77
2023/10/21 00:13:14;;;;;;;22.58;10.32;;;14.00;99.90;;;;;;5052686;28;20025;-83
2023/10/21 00:15:40;;;;;;;24.70;9.20;;;14.00;99.90;;;;;;5042730;28;20032;-77
2023/10/21 00:18:06;;;;;;;18.67;8.80;;;14.00;99.90;;;;;;5053503;28;20044;-83
2023/10/21 00:20:31;;;;;;;29.33;10.98;;;13.90;99.90;;;;;;5042594;28;20024;-82
2023/10/21 00:22:57;;;;;;;25.08;8.77;;;13.80;99.90;;;;;;5053537;28;20108;-77
2023/10/21 00:25:23;;;;;;;22.08;9.73;;;13.80;99.90;;;;;;5052518;28;20112;-83
2023/10/21 00:27:49;;;;;;;25.50;9.75;;;13.70;99.90;;;;;;5053565;28;20021;-77
2023/10/21 00:30:14;;;;;;;19.98;8.57;;;13.70;99.90;;;;;;5053424;28;20059;-77
2023/10/21 00:32:40;;;;;;;23.70;8.80;;;13.70;99.90;;;;;;5048442;28;20022;-82
2023/10/21 00:35:06;;;;;;;26.15;10.40;;;13.70;99.90;;;;;;5051236;28;20035;-77
2023/10/21 00:37:32;;;;;;;22.88;9.05;;;13.70;99.90;;;;;;5052041;28;20156;-82
2023/10/21 00:39:57;;;;;;;26.50;9.77;;;13.70;99.90;;;;;;5051502;28;20025;-82
2023/10/21 00:42:23;;;;;;;27.55;10.25;;;13.70;99.90;;;;;;5052225;28;20021;-77
2023/10/21 00:44:48;;;;;;;22.23;8.90;;;13.70;99.90;;;;;;5053392;28;20025;-77
2023/10/21 00:47:16;;;;;;;24.23;9.32;;;13.80;99.90;;;;;;5051883;28;20399;-77
2023/10/21 00:49:42;;;;;;;25.17;9.38;;;13.80;99.90;;;;;;5052391;28;20025;-83
2023/10/21 00:52:07;;;;;;;21.67;9.10;;;13.80;99.90;;;;;;5053093;28;20044;-83
2023/10/21 00:54:33;;;;;;;26.92;8.65;;;13.90;99.90;;;;;;5059572;28;20059;-83
2023/10/21 00:56:59;;;;;;;17.52;7.60;;;13.90;99.90;;;;;;5053048;28;20052;-77
2023/10/21 00:59:25;;;;;;;25.23;8.48;;;13.90;99.90;;;;;;5051255;28;20499;-83
2023/10/21 01:01:51;;;;;;;27.17;9.60;;;14.00;99.90;;;;;;5051430;28;20023;-77
2023/10/21 01:04:17;;;;;;;19.98;9.68;;;14.10;99.90;;;;;;5050938;28;20036;-83
2023/10/21 01:06:43;;;;;;;26.13;9.10;;;14.10;99.90;;;;;;5052167;28;20029;-77
2023/10/21 01:09:10;;;;;;;17.33;7.43;;;14.20;99.90;;;;;;5051415;28;20066;-77
2023/10/21 01:11:36;;;;;;;28.55;9.43;;;14.30;99.90;;;;;;5052849;28;20017;-82
2023/10/21 01:14:03;;;;;;;23.25;8.48;;;14.30;99.90;;;;;;5052756;28;20010;-83
2023/10/21 01:16:28;;;;;;;29.15;8.23;;;14.50;99.90;;;;;;5052879;28;20017;-77
2023/10/21 01:18:54;;;;;;;22.58;7.70;;;14.50;99.90;;;;;;5051243;28;20029;-83
2023/10/21 01:21:20;;;;;;;22.35;8.80;;;14.60;99.90;;;;;;5058282;28;20028;-83
2023/10/21 01:23:46;;;;;;;21.50;8.88;;;14.70;99.90;;;;;;5053157;28;20013;-83
2023/10/21 01:26:12;;;;;;;16.95;7.32;;;14.70;99.90;;;;;;5047551;28;20017;-77
2023/10/21 01:28:37;;;;;;;23.88;7.80;;;14.80;99.90;;;;;;5050117;28;20071;-83
2023/10/21 01:31:04;;;;;;;27.65;8.07;;;14.80;99.90;;;;;;5051445;28;20070;-77
2023/10/21 01:33:30;;;;;;;23.77;8.88;;;14.90;99.90;;;;;;5052539;28;20458;-77
2023/10/21 01:35:55;;;;;;;24.98;8.52;;;14.90;99.90;;;;;;5051502;28;20078;-77
2023/10/21 01:38:21;;;;;;;24.02;7.65;;;15.00;99.90;;;;;;5053144;28;20131;-77
2023/10/21 01:40:47;;;;;;;19.23;7.85;;;15.00;99.90;;;;;;5051574;28;20013;-77
2023/10/21 01:43:13;;;;;;;24.17;8.73;;;15.00;99.90;;;;;;5050999;28;20108;-77
2023/10/21 01:45:39;;;;;;;22.30;8.48;;;14.90;99.90;;;;;;5051290;28;20124;-83
2023/10/21 01:48:05;;;;;;;23.30;8.52;;;14.90;99.90;;;;;;5050819;28;20047;-77
2023/10/21 01:50:32;;;;;;;24.13;10.02;;;14.80;99.90;;;;;;5051220;28;20028;-82
2023/10/21 01:52:58;;;;;;;27.98;13.40;;;14.70;99.90;;;;;;5051081;28;20021;-77
2023/10/21 01:55:24;;;;;;;36.42;15.80;;;14.70;99.90;;;;;;5048259;28;20372;-77
2023/10/21 01:57:49;;;;;;;31.95;14.25;;;14.60;99.90;;;;;;5050704;28;20029;-81
2023/10/21 02:00:19;;;;;;;28.58;13.02;;;14.60;99.90;;;;;;5052468;28;20021;-82
2023/10/21 02:02:55;;;;;;;20.92;10.77;;;14.50;99.90;;;;;;5050994;28;20014;-83
2023/10/21 02:05:22;;;;;;;25.35;12.40;;;14.40;99.90;;;;;;5052188;28;20485;-77
2023/10/21 02:07:48;;;;;;;34.13;14.25;;;14.30;99.90;;;;;;5051435;28;20462;-77
2023/10/21 02:10:17;;;;;;;35.00;14.43;;;14.20;99.90;;;;;;5051113;28;20107;-77
2023/10/21 02:12:42;;;;;;;30.52;12.68;;;14.10;99.90;;;;;;5055558;28;20017;-82
2023/10/21 02:15:11;;;;;;;32.70;12.23;;;14.10;99.90;;;;;;5055041;28;20017;-82
2023/10/21 02:17:38;;;;;;;29.85;11.43;;;14.10;99.90;;;;;;5054789;28;20429;-82
2023/10/21 02:20:05;;;;;;;26.10;11.68;;;14.00;99.90;;;;;;5056142;28;20021;-82
2023/10/21 02:22:30;;;;;;;31.20;12.05;;;14.00;99.90;;;;;;5054726;28;20017;-77
2023/10/21 02:24:56;;;;;;;29.40;12.40;;;14.00;99.90;;;;;;5064532;28;20036;-82
2023/10/21 02:27:22;;;;;;;25.30;10.77;;;14.00;99.90;;;;;;5054369;28;20383;-77
2023/10/21 02:29:49;;;;;;;23.75;10.10;;;13.90;99.90;;;;;;5054682;28;20017;-76
2023/10/21 02:32:15;;;;;;;26.17;10.60;;;13.90;99.90;;;;;;5054635;28;20032;-82
2023/10/21 02:34:41;;;;;;;25.08;11.13;;;13.90;99.90;;;;;;5055908;28;20128;-76
2023/10/21 02:37:08;;;;;;;28.83;10.65;;;13.90;99.90;;;;;;5067544;28;20041;-82
2023/10/21 02:39:34;;;;;;;23.83;10.40;;;13.90;99.90;;;;;;5054401;28;20088;-76
2023/10/21 02:41:59;;;;;;;28.35;9.73;;;13.90;99.90;;;;;;5054569;28;20445;-77
2023/10/21 02:44:25;;;;;;;24.40;10.02;;;13.90;99.90;;;;;;5054544;28;20021;-82
2023/10/21 02:46:51;;;;;;;29.13;10.52;;;13.90;99.90;;;;;;5054070;28;20063;-82
2023/10/21 02:49:16;;;;;;;27.30;9.68;;;13.90;99.90;;;;;;5070732;28;20494;-82
2023/10/21 02:51:42;;;;;;;18.08;9.18;;;13.90;99.90;;;;;;5055152;28;20021;-77
2023/10/21 02:54:08;;;;;;;26.27;10.05;;;13.80;99.90;;;;;;5053534;28;20029;-83
2023/10/21 02:56:34;;;;;;;23.48;9.70;;;13.80;99.90;;;;;;5061554;28;20107;-82
2023/10/21 02:59:00;;;;;;;21.90;9.07;;;13.80;99.90;;;;;;5062027;28;20045;-77
2023/10/21 03:01:26;;;;;;;30.88;10.65;;;13.70;99.90;;;;;;5053817;28;20113;-77
2023/10/21 03:03:52;;;;;;;27.88;10.18;;;13.70;99.90;;;;;;5054181;28;20024;-82
2023/10/21 03:06:21;;;;;;;23.80;9.88;;;13.60;99.90;;;;;;5053801;28;20390;-83
2023/10/21 03:08:47;;;;;;;26.33;9.68;;;13.60;99.90;;;;;;5053899;28;20017;-82
2023/10/21 03:11:12;;;;;;;26.20;10.00;;;13.60;99.90;;;;;;5037888;28;20398;-83
2023/10/21 03:13:39;;;;;;;30.88;10.57;;;13.60;99.90;;;;;;5047462;28;20070;-82
2023/10/21 03:16:07;;;;;;;29.98;9.95;;;13.50;99.90;;;;;;5055290;28;20024;-83
2023/10/21 03:18:33;;;;;;;21.88;11.00;;;13.50;99.90;;;;;;5053623;28;20389;-83
2023/10/21 03:20:59;;;;;;;23.92;10.00;;;13.40;99.90;;;;;;5055187;28;20363;-77
2023/10/21 03:23:24;;;;;;;39.80;10.95;;;13.40;99.90;;;;;;5052911;28;20087;-82
2023/10/21 03:25:57;;;;;;;22.45;10.95;;;13.30;99.90;;;;;;5052989;28;20467;-77
2023/10/21 03:28:23;;;;;;;26.10;10.75;;;13.30;99.90;;;;;;5051570;28;20367;-82
2023/10/21 03:30:50;;;;;;;28.98;10.50;;;13.20;99.90;;;;;;5053740;28;20474;-77
2023/10/21 03:33:16;;;;;;;24.00;10.20;;;13.20;99.90;;;;;;5053250;28;20100;-82
2023/10/21 03:35:58;;;;;;;30.90;12.45;;;13.20;99.90;;;;;;5053505;28;20017;-77
2023/10/21 03:38:24;;;;;;;25.83;12.00;;;13.10;99.90;;;;;;5053285;28;20037;-77
2023/10/21 03:41:02;;;;;;;28.15;11.68;;;13.10;99.90;;;;;;5053771;28;20044;-80
2023/10/21 03:43:28;;;;;;;23.25;12.35;;;13.10;99.90;;;;;;5053012;28;20074;-82
2023/10/21 03:45:55;;;;;;;24.70;11.23;;;13.10;99.90;;;;;;5054443;28;20027;-76
2023/10/21 03:48:21;;;;;;;26.17;12.60;;;13.00;99.90;;;;;;5053193;28;20433;-77
2023/10/21 03:50:48;;;;;;;24.75;12.23;;;12.90;99.90;;;;;;5053106;28;20029;-77
2023/10/21 03:53:16;;;;;;;31.38;12.57;;;12.90;99.90;;;;;;5069186;28;20364;-82
2023/10/21 03:55:43;;;;;;;25.65;12.32;;;12.80;99.90;;;;;;5052773;28;20501;-82
2023/10/21 03:58:12;;;;;;;29.67;12.25;;;12.80;99.90;;;;;;5065746;28;20033;-77
2023/10/21 04:00:39;;;;;;;27.77;11.77;;;12.80;99.90;;;;;;5054325;28;20022;-82
2023/10/21 04:03:05;;;;;;;27.42;11.13;;;12.80;99.90;;;;;;5052743;28;20028;-77
2023/10/21 04:05:31;;;;;;;26.42;12.05;;;12.80;99.90;;;;;;5054358;28;20089;-77
2023/10/21 04:07:59;;;;;;;32.00;11.15;;;12.90;99.90;;;;;;5052625;28;20028;-82
2023/10/21 04:10:25;;;;;;;27.15;10.32;;;12.80;99.90;;;;;;5052921;28;20029;-77
2023/10/21 04:12:50;;;;;;;28.80;11.43;;;12.90;99.90;;;;;;5051922;28;20017;-76
2023/10/21 04:15:16;;;;;;;22.33;9.57;;;13.00;99.90;;;;;;5054137;28;20028;-82
2023/10/21 04:17:45;;;;;;;25.75;10.68;;;13.00;99.90;;;;;;5053756;28;20055;-77
2023/10/21 04:20:12;;;;;;;23.05;10.27;;;13.10;99.90;;;;;;5052570;28;20020;-76
2023/10/21 04:22:39;;;;;;;31.92;11.10;;;13.20;99.90;;;;;;5052576;28;20020;-82
2023/10/21 04:25:05;;;;;;;29.08;10.57;;;13.20;99.90;;;;;;5051823;28;20017;-82
2023/10/21 04:27:31;;;;;;;31.40;11.57;;;13.20;99.90;;;;;;5046852;28;20060;-82
2023/10/21 04:29:56;;;;;;;28.85;11.02;;;13.20;99.90;;;;;;5069070;28;20041;-82
2023/10/21 04:32:22;;;;;;;27.67;11.35;;;13.20;99.90;;;;;;5052458;28;20025;-76
2023/10/21 04:34:48;;;;;;;33.63;11.30;;;13.30;99.90;;;;;;5052702;28;20055;-77
2023/10/21 04:37:13;;;;;;;23.00;10.70;;;13.20;99.90;;;;;;5053598;28;20510;-77
2023/10/21 04:39:39;;;;;;;26.95;11.00;;;13.20;99.90;;;;;;5052036;28;20067;-82
2023/10/21 04:42:05;;;;;;;22.40;10.30;;;13.20;99.90;;;;;;5051962;28;20475;-81
2023/10/21 04:44:31;;;;;;;19.85;9.32;;;13.20;99.90;;;;;;5052529;28;20116;-77
2023/10/21 04:46:57;;;;;;;24.85;10.15;;;13.20;99.90;;;;;;5051988;28;20559;-82
2023/10/21 04:49:22;;;;;;;19.75;10.25;;;13.10;99.90;;;;;;5053027;28;20475;-82
2023/10/21 04:51:49;;;;;;;18.10;9.80;;;13.10;99.90;;;;;;5049227;28;20013;-77
2023/10/21 04:54:15;;;;;;;24.70;9.82;;;13.10;99.90;;;;;;5039915;28;20033;-77
2023/10/21 04:56:40;;;;;;;22.83;10.68;;;13.00;99.90;;;;;;5051822;28;20021;-77
2023/10/21 04:59:06;;;;;;;27.33;11.77;;;13.00;99.90;;;;;;5067531;28;20095;-77
2023/10/21 05:01:32;;;;;;;27.17;12.27;;;13.00;99.90;;;;;;5050380;28;20025;-82
2023/10/21 05:03:59;;;;;;;26.08;11.63;;;13.00;99.90;;;;;;5051660;28;20017;-82
2023/10/21 05:06:25;;;;;;;22.65;10.65;;;13.00;99.90;;;;;;5053174;28;20103;-77
2023/10/21 05:08:50;;;;;;;20.52;10.05;;;13.00;99.90;;;;;;5051994;28;20151;-77
2023/10/21 05:11:16;;;;;;;25.85;10.93;;;13.00;99.90;;;;;;5048406;28;20061;-77
2023/10/21 05:13:42;;;;;;;22.55;10.60;;;13.00;99.90;;;;;;5051184;28;20036;-77
2023/10/21 05:16:07;;;;;;;22.33;9.77;;;13.00;99.90;;;;;;5053059;28;20088;-77
2023/10/21 05:18:33;;;;;;;28.27;11.65;;;13.00;99.90;;;;;;5060577;28;20036;-77
2023/10/21 05:20:59;;;;;;;22.88;12.13;;;13.00;99.90;;;;;;5057574;28;20033;-77
2023/10/21 05:23:25;;;;;;;24.75;10.73;;;13.00;99.90;;;;;;5050863;28;20147;-79
2023/10/21 05:25:51;;;;;;;21.73;10.13;;;13.00;99.90;;;;;;5053171;28;20017;-77
2023/10/21 05:28:19;;;;;;;30.85;11.60;;;13.00;99.90;;;;;;5050346;28;20087;-78
2023/10/21 05:30:45;;;;;;;29.20;10.73;;;13.00;99.90;;;;;;5054791;28;20031;-78
2023/10/21 05:33:11;;;;;;;24.25;10.25;;;13.00;99.90;;;;;;5050702;28;20028;-78
2023/10/21 05:35:37;;;;;;;23.02;10.32;;;12.90;99.90;;;;;;5050628;28;20025;-78
2023/10/21 05:38:02;;;;;;;29.77;10.98;;;13.00;99.90;;;;;;5047062;28;20449;-78
2023/10/21 05:40:28;;;;;;;24.02;11.48;;;13.00;99.90;;;;;;5051773;28;20017;-78
2023/10/21 05:42:54;;;;;;;29.10;11.95;;;13.00;99.90;;;;;;5050335;28;20035;-78
2023/10/21 05:45:19;;;;;;;30.17;10.55;;;13.00;99.90;;;;;;5050980;28;20106;-78
2023/10/21 05:47:45;;;;;;;25.85;11.30;;;13.00;99.90;;;;;;5051537;28;20080;-78
2023/10/21 05:50:11;;;;;;;27.27;11.35;;;13.00;99.90;;;;;;5054490;28;20029;-78
2023/10/21 05:52:36;;;;;;;21.98;11.30;;;13.00;99.90;;;;;;5049567;28;20017;-78
2023/10/21 05:55:04;;;;;;;22.70;10.70;;;13.00;99.90;;;;;;5059360;28;20103;-78
2023/10/21 05:57:30;;;;;;;20.08;10.02;;;13.00;99.90;;;;;;5051999;28;20034;-78
2023/10/21 05:59:55;;;;;;;19.15;10.13;;;13.00;99.90;;;;;;5048170;28;20033;-78
2023/10/21 06:02:21;;;;;;;22.15;11.27;;;13.00;99.90;;;;;;5044088;28;20387;-78
2023/10/21 06:04:46;;;;;;;24.02;10.98;;;12.90;99.90;;;;;;5050982;28;20060;-78
2023/10/21 06:07:12;;;;;;;25.67;10.48;;;13.00;99.90;;;;;;5046888;28;20024;-78
2023/10/21 06:09:38;;;;;;;26.17;11.65;;;12.90;99.90;;;;;;5046110;28;20021;-78
2023/10/21 06:12:04;;;;;;;20.52;11.90;;;13.00;99.90;;;;;;5057383;28;20028;-78
2023/10/21 06:14:29;;;;;;;26.70;11.05;;;13.00;99.90;;;;;;5049438;28;20426;-78
2023/10/21 06:16:55;;;;;;;23.08;11.02;;;13.00;99.90;;;;;;5058201;28;20025;-78
2023/10/21 06:19:21;;;;;;;30.67;13.00;;;13.00;99.90;;;;;;5048923;28;20479;-77
2023/10/21 06:21:46;;;;;;;26.35;11.40;;;13.10;99.90;;;;;;5043481;28;20021;-77
2023/10/21 06:24:12;;;;;;;25.13;10.88;;;13.10;99.90;;;;;;5050636;28;20391;-78
2023/10/21 06:26:38;;;;;;;32.45;12.07;;;13.10;99.90;;;;;;5049469;28;20039;-78
2023/10/21 06:29:04;;;;;;;19.45;10.23;;;13.20;99.90;;;;;;5060610;28;20108;-78
2023/10/21 06:31:31;;;;;;;27.20;11.70;;;13.20;99.90;;;;;;5052233;28;20455;-79
2023/10/21 06:33:57;;;;;;;35.33;12.80;;;13.30;99.90;;;;;;5045106;28;20418;-78
2023/10/21 06:36:22;;;;;;;30.60;12.15;;;13.40;99.90;;;;;;5048336;28;20025;-78
2023/10/21 06:38:49;;;;;;;28.75;11.93;;;13.50;99.90;;;;;;5056227;28;20029;-78
2023/10/21 06:41:16;;;;;;;23.67;11.25;;;13.50;99.90;;;;;;5051792;28;20025;-79
2023/10/21 06:43:41;;;;;;;28.83;12.95;;;13.60;99.90;;;;;;5051121;28;20059;-84
2023/10/21 06:46:07;;;;;;;26.25;11.40;;;13.70;99.90;;;;;;5052092;28;20013;-79
2023/10/21 06:48:33;;;;;;;33.70;11.30;;;13.70;99.90;;;;;;5050540;28;20041;-78
2023/10/21 06:50:59;;;;;;;29.17;11.75;;;13.80;99.90;;;;;;5048443;28;20505;-78
2023/10/21 06:53:26;;;;;;;25.60;11.30;;;13.90;99.90;;;;;;5046955;28;20025;-78
2023/10/21 06:55:53;;;;;;;24.40;10.15;;;13.90;99.90;;;;;;5042920;28;20029;-78
2023/10/21 06:58:19;;;;;;;29.10;14.63;;;13.90;99.90;;;;;;5051436;28;20490;-78
2023/10/21 07:00:46;;;;;;;37.50;21.80;;;13.90;99.90;;;;;;5047181;28;20180;-78
2023/10/21 07:03:11;;;;;;;38.15;21.95;;;13.90;99.90;;;;;;5049648;28;20025;-79
2023/10/21 07:05:38;;;;;;;50.03;26.25;;;13.90;99.90;;;;;;5051872;28;20497;-78
2023/10/21 07:08:05;;;;;;;49.53;27.42;;;13.90;99.90;;;;;;5052942;28;20082;-79
2023/10/21 07:10:31;;;;;;;54.05;26.67;;;14.00;99.90;;;;;;5050943;28;20025;-79
2023/10/21 07:12:59;;;;;;;45.83;23.65;;;14.00;99.90;;;;;;5054088;28;20394;-78
2023/10/21 07:15:27;;;;;;;44.42;22.60;;;14.00;99.90;;;;;;5052715;28;20425;-78
2023/10/21 07:17:53;;;;;;;39.70;21.05;;;14.00;99.90;;;;;;5052191;28;20517;-78
2023/10/21 07:20:19;;;;;;;45.55;21.00;;;14.00;99.90;;;;;;5044488;28;20025;-78
2023/10/21 07:22:45;;;;;;;42.90;21.30;;;14.00;99.90;;;;;;5051302;28;20031;-78
2023/10/21 07:25:11;;;;;;;45.22;22.92;;;14.10;99.90;;;;;;5044666;28;20029;-78
2023/10/21 07:27:37;;;;;;;37.30;21.48;;;14.10;99.90;;;;;;5046085;28;20027;-78
2023/10/21 07:30:06;;;;;;;36.17;20.27;;;14.10;99.90;;;;;;5050716;28;20066;-78
2023/10/21 07:32:31;;;;;;;35.00;19.23;;;14.10;99.90;;;;;;5049394;28;20112;-78
2023/10/21 07:34:57;;;;;;;38.40;19.35;;;14.20;99.90;;;;;;5051552;28;20124;-78
2023/10/21 07:37:23;;;;;;;39.70;20.02;;;14.20;99.90;;;;;;5043557;28;20843;-78
2023/10/21 07:39:48;;;;;;;33.47;18.10;;;14.30;99.90;;;;;;5052651;28;20383;-78
2023/10/21 07:42:14;;;;;;;31.13;16.70;;;14.30;99.90;;;;;;5049857;28;20038;-78
2023/10/21 07:44:41;;;;;;;33.78;17.17;;;14.30;99.90;;;;;;5051654;28;20031;-79
2023/10/21 07:47:07;;;;;;;27.25;15.32;;;14.40;99.90;;;;;;5048402;28;20041;-76
2023/10/21 07:49:34;;;;;;;33.10;17.65;;;14.50;99.90;;;;;;5047830;28;20045;-76
2023/10/21 07:52:00;;;;;;;25.27;13.43;;;14.50;99.90;;;;;;5053185;28;20025;-76
2023/10/21 07:54:26;;;;;;;33.58;13.73;;;14.60;99.90;;;;;;5051209;28;20044;-83
2023/10/21 07:56:53;;;;;;;34.40;15.90;;;14.70;99.90;;;;;;5044606;28;20460;-82
2023/10/21 07:59:19;;;;;;;31.15;17.08;;;14.80;99.90;;;;;;5046270;28;20033;-76
2023/10/21 08:01:45;;;;;;;32.95;16.52;;;14.80;99.90;;;;;;5043102;28;20367;-83
2023/10/21 08:04:11;;;;;;;37.60;19.05;;;14.90;99.90;;;;;;5047180;28;20047;-83
2023/10/21 08:06:38;;;;;;;46.67;21.90;;;14.90;99.90;;;;;;5053519;28;20013;-83
2023/10/21 08:09:04;;;;;;;40.42;20.67;;;15.00;99.90;;;;;;5047295;28;20144;-83
2023/10/21 08:11:31;;;;;;;45.85;23.30;;;15.10;99.90;;;;;;5050890;28;20057;-77
2023/10/21 08:13:58;;;;;;;43.72;20.67;;;15.10;99.90;;;;;;5049642;28;20036;-78
2023/10/21 08:16:23;;;;;;;25.98;16.17;;;15.20;99.90;;;;;;5048831;28;20029;-78
2023/10/21 08:18:50;;;;;;;34.90;16.45;;;15.20;99.90;;;;;;5042406;28;20041;-78
2023/10/21 08:21:16;;;;;;;78.68;36.63;;;15.30;99.90;;;;;;5050955;28;20471;-77
2023/10/21 08:23:42;;;;;;;248.13;125.90;;;15.30;99.90;;;;;;5058581;28;20085;-83
2023/10/21 08:26:07;;;;;;;300.10;146.65;;;15.40;99.90;;;;;;5048747;28;20480;-83
2023/10/21 08:28:33;;;;;;;279.10;111.40;;;15.50;99.90;;;;;;5043573;28;20079;-83
2023/10/21 08:30:58;;;;;;;203.40;66.10;;;15.70;99.90;;;;;;5041995;28;20029;-84
2023/10/21 08:33:24;;;;;;;92.32;29.60;;;15.90;99.90;;;;;;5052035;28;20021;-84
2023/10/21 08:35:50;;;;;;;73.82;22.80;;;16.20;99.90;;;;;;5051530;28;20482;-84
2023/10/21 08:38:16;;;;;;;239.45;132.18;;;16.50;99.90;;;;;;5048118;28;20055;-83
2023/10/21 08:40:46;;;;;;;288.00;152.20;;;16.70;99.90;;;;;;5043133;28;20028;-83
2023/10/21 08:43:15;;;;;;;131.23;41.88;;;17.00;99.90;;;;;;5046033;28;20025;-84
2023/10/21 08:45:42;;;;;;;55.50;17.75;;;17.20;99.90;;;;;;5049028;28;20136;-84
2023/10/21 08:48:11;;;;;;;32.85;12.23;;;17.50;99.90;;;;;;5042470;28;20046;-83
2023/10/21 08:50:38;;;;;;;26.85;7.97;;;17.70;99.90;;;;;;5051279;28;20094;-83
2023/10/21 08:53:11;;;;;;;46.78;20.35;;;17.90;99.90;;;;;;5051462;28;20029;-84
2023/10/21 08:55:37;;;;;;;;;;;18.10;99.90;;;;;;5047239;28;20025;-84
2023/10/21 08:58:04;;;;;;;42.85;12.23;;;18.50;99.90;;;;;;5045873;28;19944;-84
2023/10/21 09:00:29;;;;;;;67.03;20.17;;;18.60;99.90;;;;;;5048761;28;20028;-84
2023/10/21 09:02:55;;;;;;;54.45;15.35;;;18.70;99.90;;;;;;5051227;28;20021;-84
2023/10/21 09:05:21;;;;;;;33.22;13.45;;;18.70;99.90;;;;;;5041108;28;20061;-84
2023/10/21 09:07:49;;;;;;;44.90;16.23;;;18.60;99.90;;;;;;5049027;28;20032;-84
2023/10/21 09:10:15;;;;;;;32.03;14.50;;;18.60;99.90;;;;;;5048455;28;20017;-84
2023/10/21 09:12:41;;;;;;;33.03;18.40;;;18.50;99.90;;;;;;5051621;28;20020;-84
2023/10/21 09:15:09;;;;;;;29.88;12.60;;;18.50;99.90;;;;;;5050589;28;20032;-84
2023/10/21 09:17:40;;;;;;;63.42;20.98;;;18.50;99.90;;;;;;5048328;28;20040;-84
2023/10/21 09:20:14;;;;;;;45.35;13.65;;;18.60;99.90;;;;;;5039608;28;20057;-83
2023/10/21 09:22:41;;;;;;;25.45;10.10;;;18.80;99.90;;;;;;5062843;28;20022;-85
2023/10/21 09:25:15;;;;;;;23.77;10.77;;;19.00;99.90;;;;;;5041526;28;20120;-85
2023/10/21 09:27:42;;;;;;;24.55;9.77;;;19.10;99.90;;;;;;5050552;28;20033;-84
2023/10/21 09:30:14;;;;;;;28.60;8.88;;;19.30;99.90;;;;;;5048899;28;20419;-84
2023/10/21 09:32:41;;;;;;;29.17;9.57;;;19.40;99.90;;;;;;5047989;28;20020;-83
2023/10/21 09:35:23;;;;;;;24.88;8.75;;;19.60;99.90;;;;;;5038021;28;20032;-83
2023/10/21 09:37:49;;;;;;;24.60;8.90;;;19.60;99.90;;;;;;5047024;28;20485;-83
2023/10/21 09:40:15;;;;;;;27.23;9.10;;;19.60;99.90;;;;;;5049758;28;20017;-83
2023/10/21 09:42:41;;;;;;;27.70;9.90;;;19.40;99.90;;;;;;5015652;28;20043;-77
2023/10/21 09:45:10;;;;;;;30.50;10.48;;;19.30;99.90;;;;;;5051071;28;20032;-83
2023/10/21 09:47:41;;;;;;;19.88;8.07;;;19.10;99.90;;;;;;5039869;28;20056;-83
2023/10/21 09:50:13;;;;;;;26.13;10.50;;;19.00;99.90;;;;;;5047165;28;20055;-82
2023/10/21 09:52:57;;;;;;;;;;;19.00;99.90;;;;;;5048169;28;20013;-77
2023/10/21 09:55:27;;;;;;;26.48;10.45;;;18.80;99.90;;;;;;5051224;28;19904;-77
2023/10/21 09:57:54;;;;;;;30.95;9.90;;;18.80;99.90;;;;;;5038954;28;20021;-83
2023/10/21 10:00:20;;;;;;;20.52;9.43;;;18.80;99.90;;;;;;5044892;28;20024;-77
2023/10/21 10:02:50;;;;;;;30.27;8.90;;;18.80;99.90;;;;;;5047238;28;20024;-77
2023/10/21 10:05:17;;;;;;;20.23;9.27;;;18.80;99.90;;;;;;5040725;28;20066;-82
2023/10/21 10:07:45;;;;;;;24.60;9.90;;;19.00;99.90;;;;;;5042201;28;20029;-77
2023/10/21 10:10:15;;;;;;;26.33;10.35;;;19.10;99.90;;;;;;5047001;28;20029;-83
2023/10/21 10:12:44;;;;;;;29.80;19.73;;;19.30;99.90;;;;;;5049458;28;20100;-77
2023/10/21 10:15:32;;;;;;;72.50;41.08;;;19.30;99.90;;;;;;5050457;28;20036;-83
2023/10/21 10:18:09;;;;;;;35.47;14.52;;;19.40;99.90;;;;;;5050140;28;20027;-77
2023/10/21 10:20:44;;;;;;;23.70;9.05;;;19.50;99.90;;;;;;5044421;28;20017;-77
2023/10/21 10:23:09;;;;;;;26.70;9.52;;;19.60;99.90;;;;;;5051222;28;20457;-77
2023/10/21 10:25:37;;;;;;;19.13;10.10;;;19.70;99.90;;;;;;5052392;28;20064;-83
2023/10/21 10:28:07;;;;;;;15.27;7.28;;;19.70;99.90;;;;;;5052079;28;20056;-83
2023/10/21 10:30:34;;;;;;;41.90;12.13;;;19.80;99.90;;;;;;5052372;28;20025;-83
2023/10/21 10:33:07;;;;;;;14.93;7.00;;;19.90;99.90;;;;;;5054182;28;20037;-77
2023/10/21 10:35:34;;;;;;;17.63;7.20;;;20.00;99.90;;;;;;5050396;28;20109;-77
2023/10/21 10:38:01;;;;;;;14.80;6.55;;;20.10;99.90;;;;;;5054585;28;20537;-77
2023/10/21 10:40:35;;;;;;;15.77;5.50;;;20.20;99.90;;;;;;5054985;28;20100;-77
2023/10/21 10:43:03;;;;;;;13.23;5.75;;;20.30;99.90;;;;;;5042466;28;20041;-77
2023/10/21 10:45:30;;;;;;;30.35;11.10;;;20.40;99.90;;;;;;5054681;28;20021;-77
2023/10/21 10:48:01;;;;;;;14.48;5.95;;;20.50;99.90;;;;;;5058550;28;20518;-77
2023/10/21 10:50:28;;;;;;;15.10;5.97;;;20.50;98.90;;;;;;5054452;28;20060;-83
2023/10/21 10:52:55;;;;;;;10.38;4.63;;;20.50;97.60;;;;;;5057869;28;20032;-83
2023/10/21 10:55:21;;;;;;;12.48;5.25;;;20.60;97.40;;;;;;5055704;28;20108;-77
2023/10/21 10:57:48;;;;;;;10.32;3.85;;;20.70;96.10;;;;;;5053963;28;20025;-83
2023/10/21 11:00:20;;;;;;;15.40;6.72;;;20.70;92.90;;;;;;5055640;28;20071;-83
2023/10/21 11:02:47;;;;;;;12.88;4.95;;;20.60;87.80;;;;;;5054316;28;20427;-84
2023/10/21 11:05:20;;;;;;;13.48;6.70;;;20.60;89.10;;;;;;5055625;28;20136;-83
2023/10/21 11:07:55;;;;;;;8.75;3.25;;;20.70;92.40;;;;;;5055200;28;20107;-77
2023/10/21 11:10:22;;;;;;;11.70;3.22;;;20.80;86.30;;;;;;5054152;28;20087;-77
2023/10/21 11:12:49;;;;;;;8.50;3.30;;;20.80;87.70;;;;;;5053917;28;20017;-77
2023/10/21 11:15:16;;;;;;;8.70;3.50;;;20.80;86.30;;;;;;5054102;28;20021;-77
2023/10/21 11:17:46;;;;;;;9.77;3.78;;;20.80;88.10;;;;;;5053969;28;20112;-83
2023/10/21 11:20:13;;;;;;;6.60;3.33;;;20.80;87.80;;;;;;5053697;28;20017;-77
2023/10/21 11:22:40;;;;;;;9.98;3.08;;;20.80;88.90;;;;;;5054095;28;20028;-77
2023/10/21 11:25:06;;;;;;;7.85;2.38;;;20.80;87.80;;;;;;5054994;28;20052;-83
2023/10/21 11:27:33;;;;;;;11.90;3.40;;;20.90;89.00;;;;;;5055188;28;20029;-77
2023/10/21 11:30:00;;;;;;;10.18;2.80;;;20.90;84.90;;;;;;5054821;28;20439;-84
2023/10/21 11:32:30;;;;;;;7.15;2.10;;;20.90;83.90;;;;;;5053766;28;20090;-77
2023/10/21 11:35:00;;;;;;;8.75;3.78;;;20.80;82.70;;;;;;5054922;28;20103;-78
2023/10/21 11:37:25;;;;;;;12.50;2.85;;;20.80;84.00;;;;;;5054866;28;20021;-77
2023/10/21 11:39:52;;;;;;;7.72;2.90;;;20.70;85.20;;;;;;5053148;28;20028;-77
2023/10/21 11:42:18;;;;;;;7.40;2.28;;;20.70;86.90;;;;;;5053289;28;20108;-83
2023/10/21 11:45:03;;;;;;;7.15;2.63;;;20.70;88.40;;;;;;5052945;28;20033;-77
2023/10/21 11:47:30;;;;;;;5.50;2.92;;;20.70;88.10;;;;;;5053062;28;20537;-83
2023/10/21 11:49:57;;;;;;;8.73;3.53;;;20.80;90.20;;;;;;5054546;28;20066;-84
2023/10/21 11:52:25;;;;;;;6.28;2.90;;;20.80;90.00;;;;;;5054581;28;20028;-78
2023/10/21 12:32:24;;;;;;;10.40;3.70;;;21.30;85.10;;;;;;5053867;28;20036;-78
2023/10/21 12:34:56;;;;;;;7.20;3.28;;;21.30;81.20;;;;;;5053858;28;20498;-84
2023/10/21 12:42:28;;;;;;;14.75;5.78;;;21.20;79.80;;;;;;5053876;28;20036;-77
2023/10/21 12:44:57;;;;;;;8.60;3.40;;;21.30;80.80;;;;;;5052318;28;20381;-83
2023/10/21 12:47:23;;;;;;;12.52;4.00;;;21.20;80.80;;;;;;5053448;28;20072;-83
2023/10/21 12:49:50;;;;;;;9.57;2.78;;;21.20;81.90;;;;;;5053373;28;20046;-77
2023/10/21 12:52:16;;;;;;;19.55;4.38;;;21.20;83.70;;;;;;5052258;28;20021;-78
2023/10/21 12:54:46;;;;;;;10.80;4.47;;;21.20;81.70;;;;;;5051027;28;20017;-84
2023/10/21 12:57:12;;;;;;;6.43;3.38;;;21.20;80.90;;;;;;5053357;28;20024;-78
2023/10/21 12:59:38;;;;;;;9.13;3.70;;;21.20;82.10;;;;;;5053199;28;20013;-84
2023/10/21 13:02:07;;;;;;;36.97;19.40;;;21.30;81.90;;;;;;5053329;28;20482;-84
2023/10/21 13:04:38;;;;;;;37.35;16.05;;;21.30;82.20;;;;;;5051826;28;20021;-78
2023/10/21 13:07:05;;;;;;;125.32;52.30;;;21.30;83.70;;;;;;5051417;28;20021;-84
2023/10/21 13:09:34;;;;;;;203.75;78.47;;;21.30;81.90;;;;;;5050823;28;20024;-78
2023/10/21 13:12:00;;;;;;;88.47;38.60;;;21.30;82.20;;;;;;5052752;28;20025;-79